Time;durP1;ratioP1;P1;durP2;ratioP2;P2;SDS_P1;SDS_P2;PMS_P1;PMS_P2;Temp;Humidity;BMP_temperature;BMP_pressure;BME280_temperature;BME280_humidity;BME280_pressure;Samples;Min_cycle;Max_cycle;Signal;HPM_P1;HPM_P2
2022/12/26 00:00:00;;;;;;;42.05;23.80;;;;;;;;;;5104570;28;20050;-77
2022/12/26 00:02:46;;;;;;;41.33;24.88;;;;;;;;;;5099408;28;20055;-76
2022/12/26 00:05:35;;;;;;;45.92;26.80;;;;;;;;;;5109110;28;20048;-77
2022/12/26 00:08:21;;;;;;;40.65;23.63;;;;;;;;;;5100954;28;20020;-76
2022/12/26 00:11:07;;;;;;;43.92;24.27;;;;;;;;;;5116992;28;20038;-78
2022/12/26 00:13:54;;;;;;;40.60;24.33;;;;;;;;;;5115831;28;20031;-76
2022/12/26 00:16:40;;;;;;;45.38;26.10;;;;;;;;;;5115376;28;20078;-77
2022/12/26 00:19:26;;;;;;;46.58;26.60;;;;;;;;;;5099017;28;20108;-76
2022/12/26 00:22:11;;;;;;;43.42;26.20;;;;;;;;;;5114792;28;20016;-76
2022/12/26 00:24:57;;;;;;;44.70;25.25;;;;;;;;;;5113902;28;20035;-78
2022/12/26 00:27:42;;;;;;;39.45;23.73;;;;;;;;;;5114220;28;20079;-77
2022/12/26 00:30:28;;;;;;;39.90;24.13;;;;;;;;;;5116939;28;20050;-79
2022/12/26 00:33:13;;;;;;;39.00;22.83;;;;;;;;;;5115170;28;20020;-77
2022/12/26 00:36:00;;;;;;;43.50;24.20;;;;;;;;;;5085629;28;20122;-77
2022/12/26 00:38:46;;;;;;;43.03;23.20;;;;;;;;;;5082228;28;20299;-76
2022/12/26 00:41:32;;;;;;;36.33;21.58;;;;;;;;;;5082453;28;20381;-77
2022/12/26 00:44:17;;;;;;;30.65;19.63;;;;;;;;;;5082218;28;20032;-77
2022/12/26 00:47:03;;;;;;;33.67;19.40;;;;;;;;;;5097253;28;20438;-77
2022/12/26 00:49:48;;;;;;;33.67;18.95;;;;;;;;;;5095686;28;20038;-77
2022/12/26 00:52:34;;;;;;;30.20;18.88;;;;;;;;;;5096619;28;20028;-77
2022/12/26 00:55:19;;;;;;;28.75;17.40;;;;;;;;;;5097583;28;20034;-77
2022/12/26 00:58:05;;;;;;;29.92;17.83;;;;;;;;;;5097370;28;20089;-77
2022/12/26 01:00:51;;;;;;;29.08;17.75;;;;;;;;;;5095751;28;20489;-77
2022/12/26 01:03:36;;;;;;;29.42;17.73;;;;;;;;;;5096377;28;20016;-76
2022/12/26 01:06:22;;;;;;;31.23;16.75;;;;;;;;;;5081806;28;20031;-77
2022/12/26 01:09:11;;;;;;;27.00;16.05;;;;;;;;;;5082764;28;20063;-76
2022/12/26 01:11:56;;;;;;;26.42;14.77;;;;;;;;;;5096428;28;20016;-76
2022/12/26 01:14:42;;;;;;;23.98;14.68;;;;;;;;;;5081955;28;20047;-78
2022/12/26 01:17:28;;;;;;;23.70;14.85;;;;;;;;;;5096675;28;20534;-76
2022/12/26 01:20:13;;;;;;;24.02;14.88;;;;;;;;;;5081602;28;20031;-76
2022/12/26 01:22:59;;;;;;;24.55;14.50;;;;;;;;;;5081965;28;20081;-77
2022/12/26 01:25:45;;;;;;;23.48;15.32;;;;;;;;;;5096583;28;20124;-76
2022/12/26 01:28:30;;;;;;;24.77;15.10;;;;;;;;;;5095238;28;20087;-77
2022/12/26 01:31:16;;;;;;;25.98;14.85;;;;;;;;;;5094897;28;20020;-77
2022/12/26 01:34:02;;;;;;;28.40;14.65;;;;;;;;;;5095484;28;20031;-76
2022/12/26 01:36:47;;;;;;;22.02;14.07;;;;;;;;;;5096992;28;20469;-78
2022/12/26 01:39:33;;;;;;;22.65;14.50;;;;;;;;;;5096520;28;20103;-76
2022/12/26 01:42:20;;;;;;;26.67;15.45;;;;;;;;;;5081064;28;20039;-76
2022/12/26 01:45:19;;;;;;;21.73;14.55;;;;;;;;;;5095224;28;20020;-77
2022/12/26 01:48:17;;;;;;;26.38;14.85;;;;;;;;;;5095426;28;20028;-76
2022/12/26 01:51:04;;;;;;;25.77;15.68;;;;;;;;;;5080237;28;20016;-77
2022/12/26 01:53:53;;;;;;;26.58;14.80;;;;;;;;;;5095442;28;20096;-76
2022/12/26 01:56:40;;;;;;;28.38;15.68;;;;;;;;;;5096453;28;20156;-77
2022/12/26 01:59:29;;;;;;;26.65;15.57;;;;;;;;;;5095923;28;20024;-76
2022/12/26 02:02:15;;;;;;;26.08;14.90;;;;;;;;;;5095556;28;20484;-77
2022/12/26 02:08:08;;;;;;;27.80;14.68;;;;;;;;;;5094981;28;20047;-76
2022/12/26 02:10:57;;;;;;;27.33;16.02;;;;;;;;;;5094406;28;20110;-75
2022/12/26 02:13:43;;;;;;;24.70;14.73;;;;;;;;;;5081463;28;20020;-77
2022/12/26 02:16:29;;;;;;;25.63;14.43;;;;;;;;;;5095300;28;20020;-77
2022/12/26 02:19:22;;;;;;;27.83;16.05;;;;;;;;;;5095401;28;20024;-76
2022/12/26 02:22:33;;;;;;;30.60;17.80;;;;;;;;;;5094345;28;20035;-77
2022/12/26 02:25:21;;;;;;;29.35;17.63;;;;;;;;;;5080442;28;20012;-76
2022/12/26 02:28:10;;;;;;;40.30;22.58;;;;;;;;;;5094677;28;20114;-77
2022/12/26 02:30:58;;;;;;;37.95;21.52;;;;;;;;;;5080116;28;20349;-76
2022/12/26 02:34:03;;;;;;;41.88;21.83;;;;;;;;;;5080421;28;20048;-77
2022/12/26 02:36:54;;;;;;;44.40;23.85;;;;;;;;;;5095251;28;20016;-77
2022/12/26 02:39:55;;;;;;;40.90;24.23;;;;;;;;;;5095430;28;20077;-77
2022/12/26 02:42:43;;;;;;;36.42;21.50;;;;;;;;;;5094900;28;20031;-77
2022/12/26 02:49:05;;;;;;;34.13;18.65;;;;;;;;;;5094967;28;20149;-77
2022/12/26 03:13:53;;;;;;;36.42;23.73;;;;;;;;;;5093528;28;20023;-76
2022/12/26 03:19:58;;;;;;;35.70;22.85;;;;;;;;;;5093533;28;20016;-76
2022/12/26 03:22:49;;;;;;;35.80;23.25;;;;;;;;;;5079759;28;20076;-76
2022/12/26 03:28:48;;;;;;;39.00;23.67;;;;;;;;;;5094124;28;20039;-76
2022/12/26 03:31:34;;;;;;;37.22;23.73;;;;;;;;;;5093347;28;20427;-77
2022/12/26 03:34:20;;;;;;;41.42;25.95;;;;;;;;;;5093457;28;20039;-77
2022/12/26 03:37:21;;;;;;;38.30;25.05;;;;;;;;;;5079979;28;20016;-75
2022/12/26 04:19:23;;;;;;;47.03;28.73;;;;;;;;;;5097306;28;20016;-77
2022/12/26 04:44:11;;;;;;;48.67;30.35;;;;;;;;;;5096932;28;20487;-76
2022/12/26 04:46:56;;;;;;;46.03;27.90;;;;;;;;;;5083218;28;20035;-77
2022/12/26 04:52:59;;;;;;;44.17;27.27;;;;;;;;;;5096153;28;20016;-76
2022/12/26 04:55:44;;;;;;;43.28;27.45;;;;;;;;;;5096147;28;20354;-76
2022/12/26 04:58:30;;;;;;;44.28;27.90;;;;;;;;;;5096672;28;20023;-77
2022/12/26 05:10:38;;;;;;;38.50;23.73;;;;;;;;;;5095865;28;20025;-76
2022/12/26 05:13:24;;;;;;;40.42;25.50;;;;;;;;;;5095082;28;20126;-77
2022/12/26 05:28:41;;;;;;;46.88;27.27;;;;;;;;;;5095505;28;20132;-77
2022/12/26 05:31:26;;;;;;;48.97;29.95;;;;;;;;;;5081440;28;20047;-76
2022/12/26 05:34:16;;;;;;;46.38;28.77;;;;;;;;;;5081162;28;20092;-77
2022/12/26 05:37:01;;;;;;;50.03;31.13;;;;;;;;;;5081209;28;20024;-76
2022/12/26 05:39:47;;;;;;;48.78;28.30;;;;;;;;;;5096012;28;20099;-77
2022/12/26 05:42:32;;;;;;;44.33;27.45;;;;;;;;;;5094339;28;20020;-77
2022/12/26 05:45:18;;;;;;;48.45;28.83;;;;;;;;;;5095799;28;20088;-75
2022/12/26 05:48:04;;;;;;;47.97;28.90;;;;;;;;;;5097522;28;20111;-77
2022/12/26 05:50:50;;;;;;;41.47;27.48;;;;;;;;;;5081007;28;20020;-76
2022/12/26 05:53:35;;;;;;;49.75;29.50;;;;;;;;;;5081122;28;20081;-78
2022/12/26 05:56:21;;;;;;;46.50;27.38;;;;;;;;;;5081415;28;20052;-76
2022/12/26 05:59:08;;;;;;;54.25;32.53;;;;;;;;;;5080586;28;20306;-77
2022/12/26 06:01:53;;;;;;;61.65;36.67;;;;;;;;;;5066758;28;20052;-79
2022/12/26 06:04:39;;;;;;;74.88;45.90;;;;;;;;;;5094505;28;20028;-77
2022/12/26 06:07:25;;;;;;;71.18;46.00;;;;;;;;;;5094363;28;20032;-77
2022/12/26 06:10:10;;;;;;;50.38;30.98;;;;;;;;;;5093698;28;20107;-78
2022/12/26 06:12:56;;;;;;;58.03;32.25;;;;;;;;;;5095339;28;20091;-77
2022/12/26 06:15:41;;;;;;;68.47;37.33;;;;;;;;;;5095151;28;20442;-77
2022/12/26 06:18:27;;;;;;;51.88;30.42;;;;;;;;;;5094150;28;20034;-77
2022/12/26 06:21:14;;;;;;;53.30;27.65;;;;;;;;;;5080980;28;20035;-78
2022/12/26 06:24:00;;;;;;;46.05;25.48;;;;;;;;;;5094492;28;20011;-78
2022/12/26 06:26:46;;;;;;;41.55;24.95;;;;;;;;;;5094247;28;20031;-78
2022/12/26 06:29:31;;;;;;;43.13;24.83;;;;;;;;;;5093334;28;20059;-77
2022/12/26 06:32:17;;;;;;;40.40;24.60;;;;;;;;;;5094440;28;20062;-77
2022/12/26 06:35:02;;;;;;;40.47;24.00;;;;;;;;;;5079789;28;20027;-77
2022/12/26 06:37:48;;;;;;;43.40;25.90;;;;;;;;;;5094902;28;20020;-78
2022/12/26 06:40:36;;;;;;;51.30;30.05;;;;;;;;;;5080412;28;20116;-78
2022/12/26 06:43:22;;;;;;;55.92;31.83;;;;;;;;;;5094458;28;20404;-77
2022/12/26 06:46:09;;;;;;;59.88;33.33;;;;;;;;;;5080317;28;20027;-78
2022/12/26 06:48:54;;;;;;;64.15;33.75;;;;;;;;;;5095011;28;20034;-77
2022/12/26 06:51:40;;;;;;;63.05;34.80;;;;;;;;;;5079697;28;20047;-77
2022/12/26 06:54:26;;;;;;;59.17;32.42;;;;;;;;;;5080013;28;20097;-77
2022/12/26 06:57:11;;;;;;;55.97;31.02;;;;;;;;;;5093371;28;20028;-77
2022/12/26 06:59:57;;;;;;;47.88;28.60;;;;;;;;;;5080266;28;20024;-77
2022/12/26 07:02:42;;;;;;;46.80;26.17;;;;;;;;;;5094137;28;20044;-78
2022/12/26 07:05:28;;;;;;;46.25;25.83;;;;;;;;;;5093552;28;20019;-77
2022/12/26 07:08:13;;;;;;;42.03;25.88;;;;;;;;;;5094326;28;20028;-77
2022/12/26 07:10:59;;;;;;;40.75;23.70;;;;;;;;;;5093701;28;20024;-77
2022/12/26 07:13:45;;;;;;;35.22;21.80;;;;;;;;;;5093424;28;20073;-77
2022/12/26 07:16:32;;;;;;;40.00;22.83;;;;;;;;;;5079882;28;20051;-77
2022/12/26 07:19:18;;;;;;;37.17;21.80;;;;;;;;;;5080091;28;20298;-76
2022/12/26 07:22:03;;;;;;;34.95;20.67;;;;;;;;;;5093331;28;20028;-77
2022/12/26 07:24:49;;;;;;;34.80;20.75;;;;;;;;;;5079186;28;20035;-77
2022/12/26 07:27:35;;;;;;;39.33;22.83;;;;;;;;;;5093785;28;20050;-77
2022/12/26 07:30:20;;;;;;;36.90;21.55;;;;;;;;;;5093288;28;20026;-77
2022/12/26 07:33:06;;;;;;;42.17;23.33;;;;;;;;;;5093346;28;20488;-76
2022/12/26 07:35:51;;;;;;;42.20;24.92;;;;;;;;;;5078987;28;20106;-77
2022/12/26 07:38:37;;;;;;;38.58;23.17;;;;;;;;;;5092968;28;20354;-77
2022/12/26 07:44:28;;;;;;;35.80;22.52;;;;;;;;;;5093025;28;20016;-77
2022/12/26 07:47:13;;;;;;;39.90;24.80;;;;;;;;;;5092930;28;20031;-77
2022/12/26 07:49:59;;;;;;;45.13;26.42;;;;;;;;;;5093163;28;20012;-77
2022/12/26 07:52:44;;;;;;;40.95;25.48;;;;;;;;;;5079831;28;20463;-77
2022/12/26 07:55:30;;;;;;;42.00;26.05;;;;;;;;;;5079082;28;20024;-77
2022/12/26 07:58:16;;;;;;;44.65;26.58;;;;;;;;;;5079335;28;20012;-77
2022/12/26 08:01:02;;;;;;;40.03;26.00;;;;;;;;;;5092711;28;20044;-79
2022/12/26 08:03:48;;;;;;;42.45;26.50;;;;;;;;;;5107344;28;20023;-80
2022/12/26 08:06:33;;;;;;;43.58;26.92;;;;;;;;;;5099527;28;20021;-77
2022/12/26 08:09:19;;;;;;;50.17;27.40;;;;;;;;;;5100270;28;20087;-77
2022/12/26 08:12:05;;;;;;;43.90;26.35;;;;;;;;;;5091760;28;20074;-77
2022/12/26 08:14:50;;;;;;;43.13;27.13;;;;;;;;;;5105704;28;20057;-78
2022/12/26 08:17:36;;;;;;;41.90;26.30;;;;;;;;;;5099209;28;20020;-77
2022/12/26 08:20:21;;;;;;;39.17;24.52;;;;;;;;;;5078066;28;20030;-78
2022/12/26 08:23:07;;;;;;;45.65;26.67;;;;;;;;;;5099093;28;20457;-77
2022/12/26 08:25:53;;;;;;;41.50;25.27;;;;;;;;;;5079294;28;20040;-77
2022/12/26 08:28:38;;;;;;;46.28;27.95;;;;;;;;;;5093468;28;20020;-78
2022/12/26 08:31:24;;;;;;;42.78;26.15;;;;;;;;;;5092924;28;20039;-79
2022/12/26 08:34:10;;;;;;;40.15;23.55;;;;;;;;;;5093097;28;20024;-77
2022/12/26 08:36:56;;;;;;;32.88;21.70;;;;;;;;;;5094467;28;20050;-77
2022/12/26 08:39:41;;;;;;;34.17;21.98;;;;;;;;;;5078701;28;20452;-78
2022/12/26 08:42:27;;;;;;;35.22;23.02;;;;;;;;;;5078413;28;20031;-78
2022/12/26 08:45:12;;;;;;;37.33;24.70;;;;;;;;;;5078552;28;20169;-77
2022/12/26 08:47:58;;;;;;;39.25;24.75;;;;;;;;;;5096999;28;20044;-78
2022/12/26 08:50:44;;;;;;;42.53;26.88;;;;;;;;;;5104270;28;20016;-78
2022/12/26 08:53:31;;;;;;;39.60;25.55;;;;;;;;;;5108506;28;20496;-78
2022/12/26 08:56:18;;;;;;;40.65;25.65;;;;;;;;;;5083461;28;20413;-78
2022/12/26 08:59:04;;;;;;;36.83;24.70;;;;;;;;;;5098815;28;20085;-78
2022/12/26 09:01:49;;;;;;;37.67;26.10;;;;;;;;;;5096608;28;20443;-78
2022/12/26 09:04:36;;;;;;;38.88;27.08;;;;;;;;;;5096758;28;20086;-78
2022/12/26 09:07:21;;;;;;;40.10;27.17;;;;;;;;;;5096602;28;20449;-79
2022/12/26 09:10:07;;;;;;;44.63;30.10;;;;;;;;;;5096734;28;20150;-78
2022/12/26 09:12:52;;;;;;;41.50;27.20;;;;;;;;;;5096563;28;20016;-79
2022/12/26 09:15:38;;;;;;;43.28;28.88;;;;;;;;;;5097001;28;20024;-78
2022/12/26 09:18:24;;;;;;;38.17;26.65;;;;;;;;;;5096308;28;20103;-79
2022/12/26 09:21:10;;;;;;;41.58;27.42;;;;;;;;;;5081671;28;20024;-79
2022/12/26 09:23:56;;;;;;;42.70;27.17;;;;;;;;;;5082354;28;20055;-78
2022/12/26 09:26:42;;;;;;;43.03;27.60;;;;;;;;;;5081538;28;20032;-78
2022/12/26 09:29:28;;;;;;;38.22;24.88;;;;;;;;;;5082127;28;20038;-78
2022/12/26 09:32:14;;;;;;;37.60;25.00;;;;;;;;;;5096039;28;20397;-79
2022/12/26 09:34:59;;;;;;;36.20;24.35;;;;;;;;;;5097339;28;20052;-77
2022/12/26 09:37:45;;;;;;;37.50;23.15;;;;;;;;;;5096029;28;20082;-78
2022/12/26 09:40:35;;;;;;;37.47;23.33;;;;;;;;;;5096250;28;20031;-79
2022/12/26 09:43:20;;;;;;;36.08;21.80;;;;;;;;;;5082442;28;20020;-78
2022/12/26 09:46:15;;;;;;;34.55;22.45;;;;;;;;;;5081859;28;20024;-78
2022/12/26 09:49:20;;;;;;;35.50;22.00;;;;;;;;;;5082588;28;20039;-79
2022/12/26 09:52:11;;;;;;;37.85;21.77;;;;;;;;;;5081823;28;20016;-79
2022/12/26 09:54:58;;;;;;;32.33;20.35;;;;;;;;;;5095238;28;20511;-79
2022/12/26 09:57:46;;;;;;;32.08;20.70;;;;;;;;;;5081353;28;20020;-77
2022/12/26 10:00:58;;;;;;;34.33;20.15;;;;;;;;;;5096295;28;20024;-79
2022/12/26 10:03:48;;;;;;;32.13;20.17;;;;;;;;;;5064017;28;20035;-79
2022/12/26 10:06:39;;;;;;;31.95;19.23;;;;;;;;;;5095481;28;20028;-79
2022/12/26 10:09:27;;;;;;;28.00;16.75;;;;;;;;;;5095559;28;20465;-79
2022/12/26 10:12:31;;;;;;;28.00;15.07;;;;;;;;;;5095893;28;20028;-79
2022/12/26 10:15:28;;;;;;;25.83;14.38;;;;;;;;;;5080292;28;20077;-78
2022/12/26 10:18:32;;;;;;;26.48;13.75;;;;;;;;;;5082820;28;20441;-77
2022/12/26 10:21:44;;;;;;;21.67;13.18;;;;;;;;;;5080197;28;20085;-78
2022/12/26 10:24:32;;;;;;;21.45;12.95;;;;;;;;;;5095825;28;20024;-78
2022/12/26 10:27:17;;;;;;;23.02;12.82;;;;;;;;;;5095564;28;20028;-78
2022/12/26 10:30:04;;;;;;;25.75;14.70;;;;;;;;;;5096005;28;20024;-79
2022/12/26 10:32:55;;;;;;;19.00;11.23;;;;;;;;;;5080378;28;20335;-77
2022/12/26 10:35:44;;;;;;;18.27;11.07;;;;;;;;;;5095692;28;20096;-78
2022/12/26 10:38:33;;;;;;;17.77;11.13;;;;;;;;;;5080714;28;20095;-79
2022/12/26 10:41:26;;;;;;;23.65;11.52;;;;;;;;;;5094642;28;20399;-78
2022/12/26 10:44:12;;;;;;;19.23;11.80;;;;;;;;;;5080088;28;20020;-80
2022/12/26 10:47:10;;;;;;;16.45;11.20;;;;;;;;;;5079416;28;20035;-78
2022/12/26 10:49:58;;;;;;;14.65;9.80;;;;;;;;;;5094260;28;20016;-78
2022/12/26 10:52:44;;;;;;;14.57;9.30;;;;;;;;;;5080223;28;20024;-78
2022/12/26 10:55:33;;;;;;;13.38;8.07;;;;;;;;;;5080516;28;20016;-78
2022/12/26 10:58:19;;;;;;;11.93;8.02;;;;;;;;;;5080599;28;20035;-79
2022/12/26 11:01:23;;;;;;;11.73;7.35;;;;;;;;;;5076233;28;20469;-78
2022/12/26 11:04:15;;;;;;;11.60;7.95;;;;;;;;;;5094501;28;20042;-78
2022/12/26 11:07:06;;;;;;;11.80;6.63;;;;;;;;;;5080905;28;20035;-77
2022/12/26 11:09:58;;;;;;;11.90;8.00;;;;;;;;;;5081650;28;20080;-78
2022/12/26 11:12:49;;;;;;;11.25;7.63;;;;;;;;;;5093292;28;20016;-78
2022/12/26 11:15:46;;;;;;;11.43;7.30;;;;;;;;;;5093431;28;20354;-77
2022/12/26 11:18:44;;;;;;;9.70;7.05;;;;;;;;;;5094045;28;20020;-78
2022/12/26 11:21:33;;;;;;;10.57;7.28;;;;;;;;;;5093705;28;20100;-80
2022/12/26 11:24:19;;;;;;;9.38;6.82;;;;;;;;;;5095052;28;20113;-78
2022/12/26 11:27:19;;;;;;;10.52;7.38;;;;;;;;;;5095014;28;20019;-77
2022/12/26 11:30:23;;;;;;;10.10;7.22;;;;;;;;;;5092399;28;20020;-76
2022/12/26 11:33:09;;;;;;;12.95;7.47;;;;;;;;;;5078638;28;20046;-77
2022/12/26 11:36:00;;;;;;;11.65;8.02;;;;;;;;;;5095197;28;20095;-76
2022/12/26 11:38:54;;;;;;;11.13;7.65;;;;;;;;;;5098488;28;20016;-77
2022/12/26 11:41:41;;;;;;;11.27;7.38;;;;;;;;;;5080129;28;20020;-78
2022/12/26 11:44:32;;;;;;;12.63;8.45;;;;;;;;;;5095839;28;20027;-78
2022/12/26 11:47:19;;;;;;;12.98;8.32;;;;;;;;;;5094325;28;20016;-79
2022/12/26 11:50:16;;;;;;;11.48;6.32;;;;;;;;;;5079423;28;20081;-78
2022/12/26 11:53:04;;;;;;;11.30;7.43;;;;;;;;;;5093261;28;20075;-78
2022/12/26 11:56:00;;;;;;;10.68;6.80;;;;;;;;;;5077643;28;20017;-78
2022/12/26 11:58:45;;;;;;;12.18;7.55;;;;;;;;;;5092982;28;20028;-78
2022/12/26 12:01:31;;;;;;;10.25;7.28;;;;;;;;;;5092790;28;20048;-77
2022/12/26 12:04:16;;;;;;;25.40;14.95;;;;;;;;;;5094053;28;20099;-77
2022/12/26 12:07:08;;;;;;;12.98;8.02;;;;;;;;;;5078787;28;20081;-78
2022/12/26 12:09:59;;;;;;;12.75;7.85;;;;;;;;;;5079606;28;20067;-79
2022/12/26 12:13:08;;;;;;;10.35;7.20;;;;;;;;;;5094054;28;20081;-79
2022/12/26 12:15:59;;;;;;;13.70;8.20;;;;;;;;;;5094326;28;20108;-78
2022/12/26 12:18:45;;;;;;;10.73;7.47;;;;;;;;;;5097187;28;20024;-79
2022/12/26 12:21:39;;;;;;;9.52;6.53;;;;;;;;;;5096224;28;20020;-78
2022/12/26 12:24:31;;;;;;;10.70;7.00;;;;;;;;;;5080130;28;20081;-78
2022/12/26 12:27:19;;;;;;;13.52;7.50;;;;;;;;;;5096979;28;20040;-79
2022/12/26 12:30:17;;;;;;;10.38;7.13;;;;;;;;;;5098786;28;20020;-77
2022/12/26 12:33:11;;;;;;;11.52;6.78;;;;;;;;;;5097562;28;20036;-78
2022/12/26 12:35:57;;;;;;;11.98;7.40;;;;;;;;;;5098866;28;20020;-78
2022/12/26 12:38:45;;;;;;;10.32;6.38;;;;;;;;;;5082114;28;20016;-77
2022/12/26 12:41:31;;;;;;;8.90;6.88;;;;;;;;;;5099381;28;20462;-77
2022/12/26 12:44:38;;;;;;;11.27;6.70;;;;;;;;;;5082440;28;20020;-78
2022/12/26 12:47:29;;;;;;;11.75;7.47;;;;;;;;;;5106594;28;20034;-76
2022/12/26 12:50:21;;;;;;;11.13;6.88;;;;;;;;;;5116605;28;20020;-78
2022/12/26 12:53:17;;;;;;;11.27;7.60;;;;;;;;;;5105685;28;20081;-78
2022/12/26 12:56:05;;;;;;;12.63;7.57;;;;;;;;;;5110995;28;20031;-79
2022/12/26 12:59:06;;;;;;;12.63;7.82;;;;;;;;;;5083565;28;20020;-79
2022/12/26 13:01:54;;;;;;;11.77;7.30;;;;;;;;;;5083803;28;20082;-78
2022/12/26 13:04:42;;;;;;;13.13;8.38;;;;;;;;;;5106191;28;20023;-78
2022/12/26 13:07:34;;;;;;;11.25;7.35;;;;;;;;;;5113056;28;20032;-79
2022/12/26 13:10:27;;;;;;;10.93;7.38;;;;;;;;;;5104541;28;20091;-78
2022/12/26 13:13:18;;;;;;;11.50;7.10;;;;;;;;;;5109152;28;20174;-77
2022/12/26 13:16:15;;;;;;;14.00;8.05;;;;;;;;;;5088158;28;20129;-79
2022/12/26 13:19:05;;;;;;;13.05;7.75;;;;;;;;;;5097082;28;20027;-79
2022/12/26 13:21:53;;;;;;;13.38;8.27;;;;;;;;;;5081735;28;20061;-78
2022/12/26 13:24:42;;;;;;;11.40;7.75;;;;;;;;;;5096213;28;20042;-78
2022/12/26 13:27:34;;;;;;;10.88;7.10;;;;;;;;;;5097032;28;20016;-77
2022/12/26 13:30:20;;;;;;;13.90;9.10;;;;;;;;;;5095999;28;20047;-78
2022/12/26 13:33:09;;;;;;;15.60;10.10;;;;;;;;;;5095727;28;20008;-78
2022/12/26 13:35:55;;;;;;;13.77;8.68;;;;;;;;;;5096303;28;20021;-78
2022/12/26 13:38:55;;;;;;;14.57;8.30;;;;;;;;;;5114587;28;20035;-79
2022/12/26 13:45:35;;;;;;;14.32;8.50;;;;;;;;;;5108348;28;20047;-78
2022/12/26 13:48:20;;;;;;;18.50;10.68;;;;;;;;;;5085147;28;20027;-77
2022/12/26 13:51:26;;;;;;;18.92;11.23;;;;;;;;;;5095094;28;20020;-78
2022/12/26 13:54:12;;;;;;;17.35;10.40;;;;;;;;;;5080753;28;20107;-77
2022/12/26 13:57:04;;;;;;;16.45;10.10;;;;;;;;;;5098948;28;20068;-76
2022/12/26 14:00:07;;;;;;;17.75;10.13;;;;;;;;;;5094434;28;20357;-78
2022/12/26 14:03:04;;;;;;;14.07;8.80;;;;;;;;;;5110025;28;20039;-78
2022/12/26 14:06:01;;;;;;;15.15;9.30;;;;;;;;;;5093278;28;20031;-77
2022/12/26 14:08:53;;;;;;;14.43;9.23;;;;;;;;;;5085931;28;20043;-79
2022/12/26 14:11:53;;;;;;;16.83;8.98;;;;;;;;;;5093339;28;20030;-77
2022/12/26 14:15:05;;;;;;;15.63;8.48;;;;;;;;;;5109765;28;20077;-79
2022/12/26 14:17:57;;;;;;;14.27;8.75;;;;;;;;;;5094940;28;20046;-79
2022/12/26 14:21:02;;;;;;;16.70;9.50;;;;;;;;;;5095067;28;20020;-80
2022/12/26 14:24:06;;;;;;;15.75;9.27;;;;;;;;;;5095901;28;20043;-79
2022/12/26 14:27:07;;;;;;;16.73;9.98;;;;;;;;;;5095781;28;20028;-79
2022/12/26 14:30:16;;;;;;;19.67;11.35;;;;;;;;;;5079858;28;20023;-78
2022/12/26 14:33:05;;;;;;;18.00;11.20;;;;;;;;;;5080768;28;20012;-78
2022/12/26 14:36:09;;;;;;;17.13;10.55;;;;;;;;;;5080214;28;20024;-78
2022/12/26 14:39:10;;;;;;;15.15;9.98;;;;;;;;;;5093725;28;20112;-80
2022/12/26 14:45:24;;;;;;;19.80;11.18;;;;;;;;;;5093519;28;20410;-77
2022/12/26 14:48:16;;;;;;;17.40;10.65;;;;;;;;;;5079832;28;20391;-78
2022/12/26 14:51:01;;;;;;;19.73;12.45;;;;;;;;;;5079428;28;20050;-78
2022/12/26 14:54:07;;;;;;;24.60;13.20;;;;;;;;;;5079449;28;20031;-78
2022/12/26 14:56:52;;;;;;;19.77;12.13;;;;;;;;;;5093921;28;20092;-78
2022/12/26 14:59:38;;;;;;;20.92;13.80;;;;;;;;;;5092957;28;20085;-78
2022/12/26 15:02:29;;;;;;;23.23;13.13;;;;;;;;;;5079707;28;20055;-78
2022/12/26 15:05:24;;;;;;;21.40;12.98;;;;;;;;;;5080240;28;20023;-78
2022/12/26 15:08:19;;;;;;;22.65;13.52;;;;;;;;;;5078952;28;20028;-78
2022/12/26 15:11:08;;;;;;;23.17;13.80;;;;;;;;;;5094186;28;20016;-78
2022/12/26 15:14:11;;;;;;;23.65;14.70;;;;;;;;;;5093619;28;20023;-78
2022/12/26 15:17:12;;;;;;;21.90;14.50;;;;;;;;;;5093313;28;20028;-78
2022/12/26 15:20:01;;;;;;;25.30;15.63;;;;;;;;;;5094000;28;20028;-77
2022/12/26 15:23:05;;;;;;;31.15;17.60;;;;;;;;;;5093084;28;20028;-78
2022/12/26 15:26:05;;;;;;;30.65;17.45;;;;;;;;;;5093032;28;20134;-78
2022/12/26 15:29:10;;;;;;;36.30;18.77;;;;;;;;;;5094846;28;20445;-78
2022/12/26 15:32:02;;;;;;;37.80;21.40;;;;;;;;;;5093699;28;20064;-78
2022/12/26 15:34:56;;;;;;;42.67;24.52;;;;;;;;;;5078654;28;20012;-78
2022/12/26 15:37:55;;;;;;;37.28;22.58;;;;;;;;;;5079576;28;20071;-78
2022/12/26 15:40:50;;;;;;;36.28;20.48;;;;;;;;;;5094371;28;20110;-78
2022/12/26 15:43:51;;;;;;;30.27;20.00;;;;;;;;;;5078983;28;20038;-77
2022/12/26 15:46:57;;;;;;;32.00;19.35;;;;;;;;;;5079125;28;20028;-78
2022/12/26 15:49:49;;;;;;;34.78;20.90;;;;;;;;;;5090207;28;20046;-77
2022/12/26 15:52:40;;;;;;;38.08;21.30;;;;;;;;;;5095582;28;20020;-78
2022/12/26 15:55:29;;;;;;;39.47;22.27;;;;;;;;;;5093288;28;20095;-77
2022/12/26 15:58:15;;;;;;;36.65;21.85;;;;;;;;;;5092223;28;20020;-78
2022/12/26 16:01:01;;;;;;;42.97;26.45;;;;;;;;;;5091009;28;20091;-78
2022/12/26 16:03:53;;;;;;;45.47;28.77;;;;;;;;;;5063092;28;20085;-77
2022/12/26 16:06:48;;;;;;;53.47;30.80;;;;;;;;;;5063389;28;20024;-78
2022/12/26 16:09:33;;;;;;;50.08;30.77;;;;;;;;;;5077310;28;20496;-78
2022/12/26 16:12:21;;;;;;;51.60;31.13;;;;;;;;;;5062259;28;20419;-77
2022/12/26 16:15:09;;;;;;;53.50;32.08;;;;;;;;;;5076989;28;20454;-78
2022/12/26 16:18:11;;;;;;;53.38;32.92;;;;;;;;;;5078004;28;20028;-77
2022/12/26 16:24:06;;;;;;;57.60;36.30;;;;;;;;;;5078078;28;20046;-78
2022/12/26 16:26:55;;;;;;;63.78;40.13;;;;;;;;;;5077254;28;20029;-77
2022/12/26 16:29:45;;;;;;;66.15;39.97;;;;;;;;;;5062553;28;20028;-76
2022/12/26 16:32:34;;;;;;;71.32;42.42;;;;;;;;;;5063393;28;20366;-77
2022/12/26 16:35:27;;;;;;;71.57;43.17;;;;;;;;;;5076995;28;20063;-78
2022/12/26 16:38:18;;;;;;;70.20;41.80;;;;;;;;;;5078232;28;20021;-79
2022/12/26 16:41:16;;;;;;;66.97;40.33;;;;;;;;;;5079066;28;20020;-78
2022/12/26 16:44:21;;;;;;;68.30;41.55;;;;;;;;;;5063280;28;20033;-77
2022/12/26 16:47:10;;;;;;;65.05;39.60;;;;;;;;;;5076193;28;20012;-78
2022/12/26 16:49:56;;;;;;;76.97;44.42;;;;;;;;;;5062251;28;20370;-78
2022/12/26 16:52:42;;;;;;;67.43;41.63;;;;;;;;;;5062576;28;20060;-77
2022/12/26 16:55:30;;;;;;;75.05;43.70;;;;;;;;;;5062431;28;20031;-78
2022/12/26 16:58:45;;;;;;;72.22;41.92;;;;;;;;;;5076814;28;20125;-78
2022/12/26 17:01:32;;;;;;;74.57;44.78;;;;;;;;;;5080755;28;20139;-77
2022/12/26 17:04:19;;;;;;;71.45;42.45;;;;;;;;;;5096193;28;20024;-79
2022/12/26 17:07:05;;;;;;;75.00;43.10;;;;;;;;;;5087548;28;20019;-77
2022/12/26 17:09:53;;;;;;;71.85;43.25;;;;;;;;;;5081668;28;20085;-77
2022/12/26 17:12:41;;;;;;;65.22;40.78;;;;;;;;;;5095251;28;20012;-78
2022/12/26 17:15:29;;;;;;;65.50;37.05;;;;;;;;;;5082809;28;20023;-78
2022/12/26 17:18:29;;;;;;;57.20;34.17;;;;;;;;;;5096464;28;20400;-78
2022/12/26 17:21:17;;;;;;;59.08;33.72;;;;;;;;;;5096040;28;20059;-78
2022/12/26 17:24:38;;;;;;;61.20;36.35;;;;;;;;;;5095032;28;20028;-78
2022/12/26 17:27:24;;;;;;;64.72;36.00;;;;;;;;;;4994988;28;20029;-77
2022/12/26 17:30:26;;;;;;;66.25;35.97;;;;;;;;;;5088098;28;20458;-78
2022/12/26 17:33:20;;;;;;;60.00;35.17;;;;;;;;;;5095765;28;20073;-77
2022/12/26 17:36:10;;;;;;;62.40;35.35;;;;;;;;;;5081525;28;20505;-78
2022/12/26 17:38:56;;;;;;;57.60;34.92;;;;;;;;;;5095274;28;20024;-78
2022/12/26 17:41:48;;;;;;;60.40;34.92;;;;;;;;;;5081058;28;20012;-78
2022/12/26 17:44:38;;;;;;;55.60;34.17;;;;;;;;;;5095792;28;20024;-77
2022/12/26 17:47:25;;;;;;;65.15;36.85;;;;;;;;;;5094356;28;20031;-77
2022/12/26 17:50:11;;;;;;;58.85;35.50;;;;;;;;;;5096332;28;20412;-77
2022/12/26 17:53:06;;;;;;;66.13;37.65;;;;;;;;;;5095733;28;20035;-78
2022/12/26 17:55:56;;;;;;;60.88;36.45;;;;;;;;;;5080885;28;20023;-77
2022/12/26 17:58:41;;;;;;;62.80;37.38;;;;;;;;;;5080730;28;20031;-78
2022/12/26 18:01:27;;;;;;;65.30;38.13;;;;;;;;;;5080294;28;20418;-77
2022/12/26 18:04:13;;;;;;;62.63;38.10;;;;;;;;;;5094582;28;20020;-77
2022/12/26 18:06:58;;;;;;;62.53;35.75;;;;;;;;;;5094349;28;20035;-78
2022/12/26 18:09:44;;;;;;;62.42;36.72;;;;;;;;;;5080731;28;20378;-78
2022/12/26 18:12:30;;;;;;;68.32;38.97;;;;;;;;;;5080623;28;20081;-75
2022/12/26 18:15:16;;;;;;;69.05;36.03;;;;;;;;;;5095885;28;20012;-78
2022/12/26 18:18:01;;;;;;;62.63;36.88;;;;;;;;;;5096826;28;20031;-78
2022/12/26 18:20:47;;;;;;;61.55;35.22;;;;;;;;;;5095614;28;20074;-78
2022/12/26 18:23:32;;;;;;;65.05;35.15;;;;;;;;;;5094627;28;20157;-79
2022/12/26 18:26:28;;;;;;;66.05;36.63;;;;;;;;;;5094027;28;20391;-78
2022/12/26 18:29:13;;;;;;;61.85;35.72;;;;;;;;;;5094513;28;20024;-78
2022/12/26 18:31:59;;;;;;;65.75;37.65;;;;;;;;;;5094296;28;20110;-77
2022/12/26 18:34:44;;;;;;;71.15;40.30;;;;;;;;;;5093562;28;20048;-78
2022/12/26 18:37:31;;;;;;;73.97;40.90;;;;;;;;;;5080421;28;20028;-77
2022/12/26 18:40:23;;;;;;;68.25;39.53;;;;;;;;;;5080270;28;20016;-79
2022/12/26 18:43:09;;;;;;;61.63;38.13;;;;;;;;;;5093915;28;20118;-78